sensor_id;sensor_type;location;lat;lon;timestamp;P1;durP1;ratioP1;P2;durP2;ratioP2
36009;SDS011;22076;52.182;5.404;2023-04-07T00:00:35;21.10;;;10.88;;
36009;SDS011;22076;52.182;5.404;2023-04-07T00:03:02;18.48;;;10.10;;
36009;SDS011;22076;52.182;5.404;2023-04-07T00:05:31;19.83;;;10.05;;
36009;SDS011;22076;52.182;5.404;2023-04-07T00:07:58;27.90;;;13.05;;
36009;SDS011;22076;52.182;5.404;2023-04-07T00:10:25;18.50;;;9.20;;
36009;SDS011;22076;52.182;5.404;2023-04-07T00:12:51;18.73;;;9.85;;
36009;SDS011;22076;52.182;5.404;2023-04-07T00:15:19;28.48;;;13.27;;
36009;SDS011;22076;52.182;5.404;2023-04-07T00:17:46;20.63;;;11.77;;
36009;SDS011;22076;52.182;5.404;2023-04-07T00:20:13;29.30;;;13.95;;
36009;SDS011;22076;52.182;5.404;2023-04-07T00:22:40;30.08;;;13.63;;
36009;SDS011;22076;52.182;5.404;2023-04-07T00:25:07;26.60;;;12.35;;
36009;SDS011;22076;52.182;5.404;2023-04-07T00:27:34;30.33;;;13.63;;
36009;SDS011;22076;52.182;5.404;2023-04-07T00:30:01;33.03;;;14.90;;
36009;SDS011;22076;52.182;5.404;2023-04-07T00:32:29;30.52;;;14.35;;
36009;SDS011;22076;52.182;5.404;2023-04-07T00:34:56;23.10;;;11.45;;
36009;SDS011;22076;52.182;5.404;2023-04-07T00:37:22;27.80;;;12.25;;
36009;SDS011;22076;52.182;5.404;2023-04-07T00:39:49;25.88;;;12.68;;
36009;SDS011;22076;52.182;5.404;2023-04-07T00:42:16;19.42;;;10.93;;
36009;SDS011;22076;52.182;5.404;2023-04-07T00:44:43;25.08;;;12.30;;
36009;SDS011;22076;52.182;5.404;2023-04-07T00:47:09;14.10;;;7.75;;
36009;SDS011;22076;52.182;5.404;2023-04-07T00:49:38;22.17;;;10.85;;
36009;SDS011;22076;52.182;5.404;2023-04-07T00:52:04;33.22;;;15.38;;
36009;SDS011;22076;52.182;5.404;2023-04-07T00:54:32;26.40;;;11.68;;
36009;SDS011;22076;52.182;5.404;2023-04-07T00:56:58;28.50;;;12.90;;
36009;SDS011;22076;52.182;5.404;2023-04-07T00:59:25;21.73;;;9.85;;
36009;SDS011;22076;52.182;5.404;2023-04-07T01:01:55;29.98;;;12.85;;
36009;SDS011;22076;52.182;5.404;2023-04-07T01:04:25;37.15;;;12.18;;
36009;SDS011;22076;52.182;5.404;2023-04-07T01:06:56;20.98;;;10.20;;
36009;SDS011;22076;52.182;5.404;2023-04-07T01:09:28;21.23;;;10.07;;
36009;SDS011;22076;52.182;5.404;2023-04-07T01:12:02;22.02;;;10.63;;
36009;SDS011;22076;52.182;5.404;2023-04-07T01:14:31;30.83;;;13.93;;
36009;SDS011;22076;52.182;5.404;2023-04-07T01:17:01;20.80;;;11.20;;
36009;SDS011;22076;52.182;5.404;2023-04-07T01:19:31;21.67;;;9.90;;
36009;SDS011;22076;52.182;5.404;2023-04-07T01:22:01;30.20;;;12.90;;
36009;SDS011;22076;52.182;5.404;2023-04-07T01:24:44;23.83;;;11.73;;
36009;SDS011;22076;52.182;5.404;2023-04-07T01:27:20;23.13;;;12.18;;
36009;SDS011;22076;52.182;5.404;2023-04-07T01:29:52;24.27;;;11.32;;
36009;SDS011;22076;52.182;5.404;2023-04-07T01:32:19;21.52;;;10.10;;
36009;SDS011;22076;52.182;5.404;2023-04-07T01:34:46;32.60;;;13.60;;
36009;SDS011;22076;52.182;5.404;2023-04-07T01:37:14;24.10;;;11.65;;
36009;SDS011;22076;52.182;5.404;2023-04-07T01:39:41;45.60;;;17.00;;
36009;SDS011;22076;52.182;5.404;2023-04-07T01:42:07;37.58;;;16.25;;
36009;SDS011;22076;52.182;5.404;2023-04-07T01:44:34;42.75;;;17.40;;
36009;SDS011;22076;52.182;5.404;2023-04-07T01:47:03;32.10;;;13.00;;
36009;SDS011;22076;52.182;5.404;2023-04-07T01:49:30;28.50;;;13.23;;
36009;SDS011;22076;52.182;5.404;2023-04-07T01:51:57;26.30;;;12.45;;
36009;SDS011;22076;52.182;5.404;2023-04-07T01:54:24;26.15;;;11.75;;
36009;SDS011;22076;52.182;5.404;2023-04-07T01:56:52;21.48;;;9.98;;
36009;SDS011;22076;52.182;5.404;2023-04-07T01:59:18;27.15;;;12.98;;
36009;SDS011;22076;52.182;5.404;2023-04-07T02:01:45;36.17;;;16.77;;
36009;SDS011;22076;52.182;5.404;2023-04-07T02:04:15;32.08;;;14.10;;
36009;SDS011;22076;52.182;5.404;2023-04-07T02:06:49;38.67;;;15.15;;
36009;SDS011;22076;52.182;5.404;2023-04-07T02:09:18;25.83;;;12.20;;
36009;SDS011;22076;52.182;5.404;2023-04-07T02:11:46;42.90;;;15.63;;
36009;SDS011;22076;52.182;5.404;2023-04-07T02:14:13;33.20;;;13.40;;
36009;SDS011;22076;52.182;5.404;2023-04-07T02:16:41;26.90;;;12.32;;
36009;SDS011;22076;52.182;5.404;2023-04-07T02:19:08;29.92;;;13.73;;
36009;SDS011;22076;52.182;5.404;2023-04-07T02:21:37;24.17;;;11.93;;
36009;SDS011;22076;52.182;5.404;2023-04-07T02:24:05;34.17;;;15.32;;
36009;SDS011;22076;52.182;5.404;2023-04-07T02:26:33;32.58;;;14.55;;
36009;SDS011;22076;52.182;5.404;2023-04-07T02:29:00;29.35;;;13.30;;
36009;SDS011;22076;52.182;5.404;2023-04-07T02:31:26;19.40;;;9.98;;
36009;SDS011;22076;52.182;5.404;2023-04-07T02:33:55;38.55;;;17.25;;
36009;SDS011;22076;52.182;5.404;2023-04-07T02:36:22;29.08;;;12.77;;
36009;SDS011;22076;52.182;5.404;2023-04-07T02:38:50;38.47;;;13.95;;
36009;SDS011;22076;52.182;5.404;2023-04-07T02:41:17;25.38;;;11.68;;
36009;SDS011;22076;52.182;5.404;2023-04-07T02:43:43;26.80;;;11.63;;
36009;SDS011;22076;52.182;5.404;2023-04-07T02:46:12;30.48;;;13.38;;
36009;SDS011;22076;52.182;5.404;2023-04-07T02:48:38;26.08;;;12.57;;
36009;SDS011;22076;52.182;5.404;2023-04-07T02:51:06;28.05;;;11.45;;
36009;SDS011;22076;52.182;5.404;2023-04-07T02:53:32;37.40;;;14.18;;
36009;SDS011;22076;52.182;5.404;2023-04-07T02:56:00;31.23;;;12.93;;
36009;SDS011;22076;52.182;5.404;2023-04-07T02:58:27;24.75;;;11.25;;
36009;SDS011;22076;52.182;5.404;2023-04-07T03:00:54;29.50;;;13.00;;
36009;SDS011;22076;52.182;5.404;2023-04-07T03:03:20;23.23;;;9.95;;
36009;SDS011;22076;52.182;5.404;2023-04-07T03:05:47;33.05;;;15.63;;
36009;SDS011;22076;52.182;5.404;2023-04-07T03:08:13;17.63;;;9.40;;
36009;SDS011;22076;52.182;5.404;2023-04-07T03:10:42;27.25;;;13.57;;
36009;SDS011;22076;52.182;5.404;2023-04-07T03:13:10;28.65;;;11.90;;
36009;SDS011;22076;52.182;5.404;2023-04-07T03:15:40;21.02;;;9.50;;
36009;SDS011;22076;52.182;5.404;2023-04-07T03:18:08;20.67;;;9.85;;
36009;SDS011;22076;52.182;5.404;2023-04-07T03:20:35;17.27;;;9.02;;
36009;SDS011;22076;52.182;5.404;2023-04-07T03:23:01;24.27;;;9.50;;
36009;SDS011;22076;52.182;5.404;2023-04-07T03:25:28;35.17;;;12.98;;
36009;SDS011;22076;52.182;5.404;2023-04-07T03:27:55;27.33;;;9.80;;
36009;SDS011;22076;52.182;5.404;2023-04-07T03:30:23;27.02;;;9.82;;
36009;SDS011;22076;52.182;5.404;2023-04-07T03:32:50;21.30;;;9.65;;
36009;SDS011;22076;52.182;5.404;2023-04-07T03:35:16;25.83;;;8.80;;
36009;SDS011;22076;52.182;5.404;2023-04-07T03:37:43;25.65;;;9.75;;
36009;SDS011;22076;52.182;5.404;2023-04-07T03:40:10;21.60;;;9.90;;
36009;SDS011;22076;52.182;5.404;2023-04-07T03:42:37;16.80;;;8.05;;
36009;SDS011;22076;52.182;5.404;2023-04-07T03:45:04;17.80;;;7.80;;
36009;SDS011;22076;52.182;5.404;2023-04-07T03:47:32;43.40;;;11.57;;
36009;SDS011;22076;52.182;5.404;2023-04-07T03:49:59;23.38;;;10.77;;
36009;SDS011;22076;52.182;5.404;2023-04-07T03:52:26;21.40;;;8.93;;
36009;SDS011;22076;52.182;5.404;2023-04-07T03:54:52;15.95;;;7.20;;
36009;SDS011;22076;52.182;5.404;2023-04-07T03:57:19;24.30;;;9.40;;
36009;SDS011;22076;52.182;5.404;2023-04-07T03:59:46;19.88;;;8.07;;
36009;SDS011;22076;52.182;5.404;2023-04-07T04:02:15;14.25;;;7.45;;
36009;SDS011;22076;52.182;5.404;2023-04-07T04:04:43;22.13;;;9.95;;
36009;SDS011;22076;52.182;5.404;2023-04-07T04:07:09;22.45;;;8.60;;
36009;SDS011;22076;52.182;5.404;2023-04-07T04:09:36;24.13;;;9.07;;
36009;SDS011;22076;52.182;5.404;2023-04-07T04:12:03;24.80;;;10.02;;
36009;SDS011;22076;52.182;5.404;2023-04-07T04:14:31;32.88;;;10.32;;
36009;SDS011;22076;52.182;5.404;2023-04-07T04:16:58;22.30;;;8.02;;
36009;SDS011;22076;52.182;5.404;2023-04-07T04:19:25;28.33;;;11.85;;
36009;SDS011;22076;52.182;5.404;2023-04-07T04:21:53;24.05;;;9.02;;
36009;SDS011;22076;52.182;5.404;2023-04-07T04:24:19;23.88;;;9.75;;
36009;SDS011;22076;52.182;5.404;2023-04-07T04:26:46;23.17;;;8.40;;
36009;SDS011;22076;52.182;5.404;2023-04-07T04:29:12;24.02;;;10.45;;
36009;SDS011;22076;52.182;5.404;2023-04-07T04:31:39;22.65;;;9.15;;
36009;SDS011;22076;52.182;5.404;2023-04-07T04:34:06;19.73;;;7.65;;
36009;SDS011;22076;52.182;5.404;2023-04-07T04:36:33;19.63;;;8.40;;
36009;SDS011;22076;52.182;5.404;2023-04-07T04:39:00;23.13;;;9.82;;
36009;SDS011;22076;52.182;5.404;2023-04-07T04:41:27;12.10;;;6.82;;
36009;SDS011;22076;52.182;5.404;2023-04-07T04:43:53;17.17;;;7.70;;
36009;SDS011;22076;52.182;5.404;2023-04-07T04:46:20;16.77;;;7.95;;
36009;SDS011;22076;52.182;5.404;2023-04-07T04:48:46;15.95;;;8.45;;
36009;SDS011;22076;52.182;5.404;2023-04-07T04:51:13;25.50;;;9.38;;
36009;SDS011;22076;52.182;5.404;2023-04-07T04:53:40;12.35;;;5.60;;
36009;SDS011;22076;52.182;5.404;2023-04-07T04:56:08;12.57;;;6.05;;
36009;SDS011;22076;52.182;5.404;2023-04-07T04:58:35;16.58;;;7.82;;
36009;SDS011;22076;52.182;5.404;2023-04-07T05:01:04;17.77;;;6.82;;
36009;SDS011;22076;52.182;5.404;2023-04-07T05:03:30;16.63;;;6.97;;
36009;SDS011;22076;52.182;5.404;2023-04-07T05:05:57;11.48;;;6.35;;
36009;SDS011;22076;52.182;5.404;2023-04-07T05:08:24;16.27;;;7.20;;
36009;SDS011;22076;52.182;5.404;2023-04-07T05:10:50;13.48;;;7.03;;
36009;SDS011;22076;52.182;5.404;2023-04-07T05:13:18;22.55;;;7.55;;
36009;SDS011;22076;52.182;5.404;2023-04-07T05:15:45;15.70;;;7.18;;
36009;SDS011;22076;52.182;5.404;2023-04-07T05:18:11;16.52;;;6.60;;
36009;SDS011;22076;52.182;5.404;2023-04-07T05:20:38;24.33;;;8.07;;
36009;SDS011;22076;52.182;5.404;2023-04-07T05:23:05;15.15;;;7.13;;
36009;SDS011;22076;52.182;5.404;2023-04-07T05:25:31;15.73;;;6.50;;
36009;SDS011;22076;52.182;5.404;2023-04-07T05:27:58;15.10;;;6.60;;
36009;SDS011;22076;52.182;5.404;2023-04-07T05:30:26;18.27;;;7.75;;
36009;SDS011;22076;52.182;5.404;2023-04-07T05:32:52;16.23;;;7.03;;
36009;SDS011;22076;52.182;5.404;2023-04-07T05:35:19;16.23;;;7.10;;
36009;SDS011;22076;52.182;5.404;2023-04-07T05:38:01;18.02;;;7.97;;
36009;SDS011;22076;52.182;5.404;2023-04-07T05:40:29;16.52;;;6.35;;
36009;SDS011;22076;52.182;5.404;2023-04-07T05:42:55;15.55;;;6.28;;
36009;SDS011;22076;52.182;5.404;2023-04-07T05:45:30;8.57;;;5.13;;
36009;SDS011;22076;52.182;5.404;2023-04-07T05:47:57;13.70;;;5.88;;
36009;SDS011;22076;52.182;5.404;2023-04-07T05:50:24;13.93;;;6.47;;
36009;SDS011;22076;52.182;5.404;2023-04-07T05:52:55;12.45;;;5.97;;
36009;SDS011;22076;52.182;5.404;2023-04-07T05:55:21;15.40;;;6.50;;
36009;SDS011;22076;52.182;5.404;2023-04-07T05:57:54;10.82;;;6.20;;
36009;SDS011;22076;52.182;5.404;2023-04-07T06:00:21;12.43;;;5.88;;
36009;SDS011;22076;52.182;5.404;2023-04-07T06:02:49;14.82;;;6.43;;
36009;SDS011;22076;52.182;5.404;2023-04-07T06:05:16;12.00;;;5.40;;
36009;SDS011;22076;52.182;5.404;2023-04-07T06:07:43;14.50;;;6.15;;
36009;SDS011;22076;52.182;5.404;2023-04-07T06:10:19;14.93;;;5.70;;
36009;SDS011;22076;52.182;5.404;2023-04-07T06:12:45;12.57;;;5.88;;
36009;SDS011;22076;52.182;5.404;2023-04-07T06:15:12;15.45;;;6.50;;
36009;SDS011;22076;52.182;5.404;2023-04-07T06:17:38;12.05;;;6.00;;
36009;SDS011;22076;52.182;5.404;2023-04-07T06:20:07;13.52;;;6.68;;
36009;SDS011;22076;52.182;5.404;2023-04-07T06:22:34;11.00;;;5.20;;
36009;SDS011;22076;52.182;5.404;2023-04-07T06:25:01;11.60;;;5.10;;
36009;SDS011;22076;52.182;5.404;2023-04-07T06:27:27;11.05;;;5.15;;
36009;SDS011;22076;52.182;5.404;2023-04-07T06:29:55;16.42;;;5.25;;
36009;SDS011;22076;52.182;5.404;2023-04-07T06:32:21;9.88;;;5.22;;
36009;SDS011;22076;52.182;5.404;2023-04-07T06:34:48;18.48;;;7.47;;
36009;SDS011;22076;52.182;5.404;2023-04-07T06:37:16;11.48;;;5.88;;
36009;SDS011;22076;52.182;5.404;2023-04-07T06:39:43;14.13;;;5.13;;
36009;SDS011;22076;52.182;5.404;2023-04-07T06:42:09;14.95;;;5.40;;
36009;SDS011;22076;52.182;5.404;2023-04-07T06:44:36;8.77;;;4.88;;
36009;SDS011;22076;52.182;5.404;2023-04-07T06:47:03;13.73;;;6.13;;
36009;SDS011;22076;52.182;5.404;2023-04-07T06:49:30;12.07;;;5.53;;
36009;SDS011;22076;52.182;5.404;2023-04-07T06:51:56;14.57;;;5.20;;
36009;SDS011;22076;52.182;5.404;2023-04-07T06:54:41;16.08;;;6.43;;
36009;SDS011;22076;52.182;5.404;2023-04-07T06:57:08;9.60;;;3.97;;
36009;SDS011;22076;52.182;5.404;2023-04-07T06:59:48;14.27;;;6.00;;
36009;SDS011;22076;52.182;5.404;2023-04-07T07:02:18;22.33;;;6.95;;
36009;SDS011;22076;52.182;5.404;2023-04-07T07:04:44;18.67;;;5.90;;
36009;SDS011;22076;52.182;5.404;2023-04-07T07:07:11;21.38;;;7.10;;
36009;SDS011;22076;52.182;5.404;2023-04-07T07:09:38;14.32;;;5.68;;
36009;SDS011;22076;52.182;5.404;2023-04-07T07:12:06;14.80;;;5.05;;
36009;SDS011;22076;52.182;5.404;2023-04-07T07:14:33;14.35;;;5.68;;
36009;SDS011;22076;52.182;5.404;2023-04-07T07:17:03;14.13;;;5.40;;
36009;SDS011;22076;52.182;5.404;2023-04-07T07:19:30;12.57;;;6.65;;
36009;SDS011;22076;52.182;5.404;2023-04-07T07:21:56;21.73;;;8.00;;
36009;SDS011;22076;52.182;5.404;2023-04-07T07:24:23;23.15;;;7.95;;
36009;SDS011;22076;52.182;5.404;2023-04-07T07:26:50;18.50;;;7.00;;
36009;SDS011;22076;52.182;5.404;2023-04-07T07:29:20;26.42;;;7.28;;
36009;SDS011;22076;52.182;5.404;2023-04-07T07:31:46;21.25;;;6.88;;
36009;SDS011;22076;52.182;5.404;2023-04-07T07:34:18;18.20;;;5.70;;
36009;SDS011;22076;52.182;5.404;2023-04-07T07:36:45;18.75;;;7.22;;
36009;SDS011;22076;52.182;5.404;2023-04-07T07:39:12;23.13;;;7.50;;
36009;SDS011;22076;52.182;5.404;2023-04-07T07:41:45;25.48;;;7.85;;
36009;SDS011;22076;52.182;5.404;2023-04-07T07:44:13;16.92;;;6.55;;
36009;SDS011;22076;52.182;5.404;2023-04-07T07:46:42;30.55;;;9.00;;
36009;SDS011;22076;52.182;5.404;2023-04-07T07:49:08;14.27;;;6.43;;
36009;SDS011;22076;52.182;5.404;2023-04-07T07:51:35;28.00;;;9.00;;
36009;SDS011;22076;52.182;5.404;2023-04-07T07:54:01;23.65;;;8.23;;
36009;SDS011;22076;52.182;5.404;2023-04-07T07:56:28;18.98;;;7.50;;
36009;SDS011;22076;52.182;5.404;2023-04-07T07:58:55;22.05;;;7.72;;
36009;SDS011;22076;52.182;5.404;2023-04-07T08:01:21;15.77;;;6.85;;
36009;SDS011;22076;52.182;5.404;2023-04-07T08:03:49;22.20;;;6.30;;
36009;SDS011;22076;52.182;5.404;2023-04-07T08:06:16;22.42;;;8.00;;
36009;SDS011;22076;52.182;5.404;2023-04-07T08:08:43;15.73;;;5.63;;
36009;SDS011;22076;52.182;5.404;2023-04-07T08:11:15;13.70;;;5.45;;
36009;SDS011;22076;52.182;5.404;2023-04-07T08:13:42;15.98;;;5.93;;
36009;SDS011;22076;52.182;5.404;2023-04-07T08:16:09;15.55;;;4.95;;
36009;SDS011;22076;52.182;5.404;2023-04-07T08:18:37;15.15;;;5.03;;
36009;SDS011;22076;52.182;5.404;2023-04-07T08:21:06;15.15;;;5.22;;
36009;SDS011;22076;52.182;5.404;2023-04-07T08:23:32;13.23;;;4.20;;
36009;SDS011;22076;52.182;5.404;2023-04-07T08:25:59;17.67;;;6.13;;
36009;SDS011;22076;52.182;5.404;2023-04-07T08:28:25;15.20;;;4.95;;
36009;SDS011;22076;52.182;5.404;2023-04-07T08:30:52;13.02;;;4.60;;
36009;SDS011;22076;52.182;5.404;2023-04-07T08:33:26;20.35;;;5.32;;
36009;SDS011;22076;52.182;5.404;2023-04-07T08:35:53;13.18;;;4.53;;
36009;SDS011;22076;52.182;5.404;2023-04-07T08:38:21;14.55;;;6.20;;
36009;SDS011;22076;52.182;5.404;2023-04-07T08:40:48;11.60;;;3.90;;
36009;SDS011;22076;52.182;5.404;2023-04-07T08:43:20;13.38;;;5.15;;
36009;SDS011;22076;52.182;5.404;2023-04-07T08:45:47;13.55;;;4.53;;
36009;SDS011;22076;52.182;5.404;2023-04-07T08:48:16;19.42;;;5.90;;
36009;SDS011;22076;52.182;5.404;2023-04-07T08:50:43;16.88;;;5.53;;
36009;SDS011;22076;52.182;5.404;2023-04-07T08:53:11;17.02;;;6.05;;
36009;SDS011;22076;52.182;5.404;2023-04-07T08:55:40;13.52;;;5.53;;
36009;SDS011;22076;52.182;5.404;2023-04-07T08:58:08;11.20;;;5.10;;
36009;SDS011;22076;52.182;5.404;2023-04-07T09:00:37;14.80;;;5.55;;
36009;SDS011;22076;52.182;5.404;2023-04-07T09:03:04;11.95;;;5.10;;
36009;SDS011;22076;52.182;5.404;2023-04-07T09:05:31;12.02;;;5.22;;
36009;SDS011;22076;52.182;5.404;2023-04-07T09:07:57;13.43;;;4.50;;
36009;SDS011;22076;52.182;5.404;2023-04-07T09:10:36;16.70;;;5.45;;
36009;SDS011;22076;52.182;5.404;2023-04-07T09:13:04;10.05;;;4.10;;
36009;SDS011;22076;52.182;5.404;2023-04-07T09:15:32;22.33;;;5.13;;
36009;SDS011;22076;52.182;5.404;2023-04-07T09:17:59;12.18;;;5.20;;
36009;SDS011;22076;52.182;5.404;2023-04-07T09:23:28;10.90;;;5.22;;
36009;SDS011;22076;52.182;5.404;2023-04-07T09:25:56;20.02;;;6.68;;
36009;SDS011;22076;52.182;5.404;2023-04-07T09:28:30;7.03;;;4.15;;
36009;SDS011;22076;52.182;5.404;2023-04-07T09:31:03;10.40;;;4.43;;
36009;SDS011;22076;52.182;5.404;2023-04-07T09:33:30;7.88;;;3.95;;
36009;SDS011;22076;52.182;5.404;2023-04-07T09:35:58;17.70;;;5.63;;
36009;SDS011;22076;52.182;5.404;2023-04-07T09:38:31;8.32;;;4.22;;
36009;SDS011;22076;52.182;5.404;2023-04-07T09:41:04;10.00;;;3.85;;
36009;SDS011;22076;52.182;5.404;2023-04-07T09:43:33;14.38;;;4.72;;
36009;SDS011;22076;52.182;5.404;2023-04-07T09:46:08;9.20;;;3.97;;
36009;SDS011;22076;52.182;5.404;2023-04-07T09:48:35;11.60;;;5.07;;
36009;SDS011;22076;52.182;5.404;2023-04-07T09:51:05;10.77;;;4.25;;
36009;SDS011;22076;52.182;5.404;2023-04-07T09:53:42;9.90;;;4.30;;
36009;SDS011;22076;52.182;5.404;2023-04-07T09:56:10;13.18;;;4.45;;
36009;SDS011;22076;52.182;5.404;2023-04-07T09:58:38;11.73;;;3.95;;
36009;SDS011;22076;52.182;5.404;2023-04-07T10:01:06;10.02;;;3.72;;
36009;SDS011;22076;52.182;5.404;2023-04-07T10:03:33;13.35;;;5.20;;
36009;SDS011;22076;52.182;5.404;2023-04-07T10:06:00;9.52;;;3.88;;
36009;SDS011;22076;52.182;5.404;2023-04-07T10:08:27;7.47;;;3.35;;
36009;SDS011;22076;52.182;5.404;2023-04-07T10:10:54;13.40;;;3.95;;
36009;SDS011;22076;52.182;5.404;2023-04-07T10:13:21;8.27;;;2.92;;
36009;SDS011;22076;52.182;5.404;2023-04-07T10:15:50;4.95;;;3.45;;
36009;SDS011;22076;52.182;5.404;2023-04-07T10:18:17;6.75;;;3.42;;
36009;SDS011;22076;52.182;5.404;2023-04-07T10:20:44;12.52;;;3.60;;
36009;SDS011;22076;52.182;5.404;2023-04-07T10:23:15;13.40;;;4.32;;
36009;SDS011;22076;52.182;5.404;2023-04-07T10:25:44;7.63;;;3.40;;
36009;SDS011;22076;52.182;5.404;2023-04-07T10:28:11;5.38;;;2.90;;
36009;SDS011;22076;52.182;5.404;2023-04-07T10:30:38;7.32;;;3.65;;
36009;SDS011;22076;52.182;5.404;2023-04-07T10:33:06;9.73;;;3.42;;
36009;SDS011;22076;52.182;5.404;2023-04-07T10:38:28;9.30;;;3.03;;
36009;SDS011;22076;52.182;5.404;2023-04-07T10:40:54;8.90;;;3.35;;
36009;SDS011;22076;52.182;5.404;2023-04-07T10:43:35;8.25;;;3.60;;
36009;SDS011;22076;52.182;5.404;2023-04-07T10:46:02;15.55;;;4.05;;
36009;SDS011;22076;52.182;5.404;2023-04-07T10:57:05;10.52;;;2.95;;
36009;SDS011;22076;52.182;5.404;2023-04-07T10:59:34;8.57;;;3.40;;
36009;SDS011;22076;52.182;5.404;2023-04-07T11:04:59;8.18;;;3.58;;
36009;SDS011;22076;52.182;5.404;2023-04-07T11:07:43;7.95;;;2.85;;
36009;SDS011;22076;52.182;5.404;2023-04-07T11:10:19;8.32;;;3.55;;
36009;SDS011;22076;52.182;5.404;2023-04-07T11:13:00;5.43;;;3.22;;
36009;SDS011;22076;52.182;5.404;2023-04-07T11:15:27;6.57;;;3.13;;
36009;SDS011;22076;52.182;5.404;2023-04-07T11:18:13;8.38;;;2.72;;
36009;SDS011;22076;52.182;5.404;2023-04-07T11:20:45;7.68;;;3.08;;
36009;SDS011;22076;52.182;5.404;2023-04-07T11:23:14;9.50;;;3.53;;
36009;SDS011;22076;52.182;5.404;2023-04-07T11:25:43;10.32;;;3.42;;
36009;SDS011;22076;52.182;5.404;2023-04-07T11:28:11;12.23;;;3.85;;
36009;SDS011;22076;52.182;5.404;2023-04-07T11:30:43;7.30;;;3.38;;
36009;SDS011;22076;52.182;5.404;2023-04-07T11:33:13;7.90;;;3.42;;
36009;SDS011;22076;52.182;5.404;2023-04-07T11:35:46;6.75;;;2.63;;
36009;SDS011;22076;52.182;5.404;2023-04-07T11:38:15;11.45;;;3.22;;
36009;SDS011;22076;52.182;5.404;2023-04-07T11:40:42;4.45;;;2.65;;
36009;SDS011;22076;52.182;5.404;2023-04-07T11:43:15;9.13;;;3.17;;
36009;SDS011;22076;52.182;5.404;2023-04-07T11:45:46;7.10;;;2.67;;
36009;SDS011;22076;52.182;5.404;2023-04-07T11:48:29;4.43;;;3.05;;
36009;SDS011;22076;52.182;5.404;2023-04-07T11:50:56;12.35;;;4.15;;
36009;SDS011;22076;52.182;5.404;2023-04-07T11:53:25;13.20;;;3.85;;
36009;SDS011;22076;52.182;5.404;2023-04-07T11:56:02;11.82;;;3.40;;
36009;SDS011;22076;52.182;5.404;2023-04-07T11:58:30;7.45;;;2.75;;
36009;SDS011;22076;52.182;5.404;2023-04-07T12:00:57;8.65;;;3.45;;
36009;SDS011;22076;52.182;5.404;2023-04-07T12:03:29;9.20;;;4.43;;
36009;SDS011;22076;52.182;5.404;2023-04-07T12:05:57;9.68;;;3.88;;
36009;SDS011;22076;52.182;5.404;2023-04-07T12:08:36;11.50;;;4.63;;
36009;SDS011;22076;52.182;5.404;2023-04-07T12:11:04;8.75;;;4.18;;
36009;SDS011;22076;52.182;5.404;2023-04-07T12:13:32;12.07;;;4.55;;
36009;SDS011;22076;52.182;5.404;2023-04-07T12:15:58;12.60;;;4.47;;
36009;SDS011;22076;52.182;5.404;2023-04-07T12:18:26;7.35;;;3.65;;
36009;SDS011;22076;52.182;5.404;2023-04-07T12:20:53;9.05;;;4.32;;
36009;SDS011;22076;52.182;5.404;2023-04-07T12:23:20;11.55;;;4.75;;
36009;SDS011;22076;52.182;5.404;2023-04-07T12:25:48;10.40;;;4.50;;
36009;SDS011;22076;52.182;5.404;2023-04-07T12:28:16;6.97;;;4.07;;
36009;SDS011;22076;52.182;5.404;2023-04-07T12:30:43;12.77;;;3.95;;
36009;SDS011;22076;52.182;5.404;2023-04-07T12:33:09;13.73;;;3.95;;
36009;SDS011;22076;52.182;5.404;2023-04-07T12:35:36;13.98;;;4.30;;
36009;SDS011;22076;52.182;5.404;2023-04-07T12:38:04;13.10;;;4.25;;
36009;SDS011;22076;52.182;5.404;2023-04-07T12:40:32;14.93;;;4.47;;
36009;SDS011;22076;52.182;5.404;2023-04-07T12:43:01;11.73;;;3.90;;
36009;SDS011;22076;52.182;5.404;2023-04-07T12:45:28;14.45;;;4.13;;
36009;SDS011;22076;52.182;5.404;2023-04-07T12:47:55;12.35;;;3.85;;
36009;SDS011;22076;52.182;5.404;2023-04-07T12:50:22;8.27;;;3.45;;
36009;SDS011;22076;52.182;5.404;2023-04-07T12:52:51;11.82;;;3.90;;
36009;SDS011;22076;52.182;5.404;2023-04-07T12:55:18;14.25;;;3.97;;
36009;SDS011;22076;52.182;5.404;2023-04-07T12:57:45;9.63;;;3.40;;
36009;SDS011;22076;52.182;5.404;2023-04-07T13:00:14;10.27;;;3.60;;
36009;SDS011;22076;52.182;5.404;2023-04-07T13:02:41;8.50;;;3.38;;
36009;SDS011;22076;52.182;5.404;2023-04-07T13:05:08;12.48;;;3.83;;
36009;SDS011;22076;52.182;5.404;2023-04-07T13:07:35;12.50;;;4.05;;
36009;SDS011;22076;52.182;5.404;2023-04-07T13:10:02;11.63;;;4.60;;
36009;SDS011;22076;52.182;5.404;2023-04-07T13:12:31;12.02;;;3.40;;
36009;SDS011;22076;52.182;5.404;2023-04-07T13:14:58;10.57;;;3.10;;
36009;SDS011;22076;52.182;5.404;2023-04-07T13:17:26;8.25;;;3.60;;
36009;SDS011;22076;52.182;5.404;2023-04-07T13:19:53;12.27;;;3.40;;
36009;SDS011;22076;52.182;5.404;2023-04-07T13:22:20;8.73;;;3.60;;
36009;SDS011;22076;52.182;5.404;2023-04-07T13:24:51;9.80;;;4.20;;
36009;SDS011;22076;52.182;5.404;2023-04-07T13:27:18;8.85;;;3.78;;
36009;SDS011;22076;52.182;5.404;2023-04-07T13:29:45;9.65;;;3.97;;
36009;SDS011;22076;52.182;5.404;2023-04-07T13:32:12;6.65;;;3.53;;
36009;SDS011;22076;52.182;5.404;2023-04-07T13:34:40;8.95;;;4.22;;
36009;SDS011;22076;52.182;5.404;2023-04-07T13:37:08;10.73;;;4.63;;
36009;SDS011;22076;52.182;5.404;2023-04-07T13:39:35;5.68;;;2.90;;
36009;SDS011;22076;52.182;5.404;2023-04-07T13:42:02;8.95;;;3.42;;
36009;SDS011;22076;52.182;5.404;2023-04-07T13:44:29;13.57;;;4.65;;
36009;SDS011;22076;52.182;5.404;2023-04-07T13:46:56;11.75;;;4.30;;
36009;SDS011;22076;52.182;5.404;2023-04-07T13:49:25;6.47;;;3.42;;
36009;SDS011;22076;52.182;5.404;2023-04-07T13:51:53;8.25;;;4.22;;
36009;SDS011;22076;52.182;5.404;2023-04-07T13:54:20;11.15;;;4.43;;
36009;SDS011;22076;52.182;5.404;2023-04-07T13:56:48;10.07;;;4.10;;
36009;SDS011;22076;52.182;5.404;2023-04-07T13:59:15;9.50;;;4.03;;
36009;SDS011;22076;52.182;5.404;2023-04-07T14:01:41;12.57;;;5.05;;
36009;SDS011;22076;52.182;5.404;2023-04-07T14:04:08;11.80;;;3.85;;
36009;SDS011;22076;52.182;5.404;2023-04-07T14:06:35;6.07;;;3.60;;
36009;SDS011;22076;52.182;5.404;2023-04-07T14:09:03;6.90;;;4.43;;
36009;SDS011;22076;52.182;5.404;2023-04-07T14:11:30;7.75;;;3.50;;
36009;SDS011;22076;52.182;5.404;2023-04-07T14:13:58;8.52;;;3.40;;
36009;SDS011;22076;52.182;5.404;2023-04-07T14:16:25;8.52;;;4.05;;
36009;SDS011;22076;52.182;5.404;2023-04-07T14:18:52;7.85;;;4.30;;
36009;SDS011;22076;52.182;5.404;2023-04-07T14:21:20;6.82;;;3.95;;
36009;SDS011;22076;52.182;5.404;2023-04-07T14:23:46;13.68;;;4.90;;
36009;SDS011;22076;52.182;5.404;2023-04-07T14:26:15;8.05;;;3.35;;
36009;SDS011;22076;52.182;5.404;2023-04-07T14:28:41;11.48;;;3.63;;
36009;SDS011;22076;52.182;5.404;2023-04-07T14:31:11;6.80;;;3.17;;
36009;SDS011;22076;52.182;5.404;2023-04-07T14:33:38;4.45;;;3.08;;
36009;SDS011;22076;52.182;5.404;2023-04-07T14:36:05;6.60;;;3.50;;
36009;SDS011;22076;52.182;5.404;2023-04-07T14:38:31;7.53;;;4.13;;
36009;SDS011;22076;52.182;5.404;2023-04-07T14:40:58;10.45;;;4.10;;
36009;SDS011;22076;52.182;5.404;2023-04-07T14:43:28;9.35;;;4.60;;
36009;SDS011;22076;52.182;5.404;2023-04-07T14:45:56;9.25;;;4.25;;
36009;SDS011;22076;52.182;5.404;2023-04-07T14:48:23;6.55;;;3.75;;
36009;SDS011;22076;52.182;5.404;2023-04-07T14:50:50;14.85;;;5.20;;
36009;SDS011;22076;52.182;5.404;2023-04-07T14:53:19;10.25;;;3.88;;
36009;SDS011;22076;52.182;5.404;2023-04-07T14:55:46;11.27;;;5.28;;